sensor_id;sensor_type;location;lat;lon;timestamp;P1;durP1;ratioP1;P2;durP2;ratioP2
76210;SDS011;65003;49.518;11.280;2024-02-14T00:01:43;5.23;;;3.90;;
76210;SDS011;65003;49.518;11.280;2024-02-14T00:04:10;5.83;;;4.87;;
76210;SDS011;65003;49.518;11.280;2024-02-14T00:06:36;5.93;;;4.47;;
76210;SDS011;65003;49.518;11.280;2024-02-14T00:09:03;7.80;;;4.27;;
76210;SDS011;65003;49.518;11.280;2024-02-14T00:11:30;7.28;;;4.15;;
76210;SDS011;65003;49.518;11.280;2024-02-14T00:13:56;5.20;;;4.13;;
76210;SDS011;65003;49.518;11.280;2024-02-14T00:16:23;9.17;;;4.93;;
76210;SDS011;65003;49.518;11.280;2024-02-14T00:18:49;4.93;;;4.03;;
76210;SDS011;65003;49.518;11.280;2024-02-14T00:21:16;7.50;;;4.13;;
76210;SDS011;65003;49.518;11.280;2024-02-14T00:23:42;6.47;;;4.30;;
76210;SDS011;65003;49.518;11.280;2024-02-14T00:26:09;6.03;;;3.57;;
76210;SDS011;65003;49.518;11.280;2024-02-14T00:28:36;10.20;;;4.03;;
76210;SDS011;65003;49.518;11.280;2024-02-14T00:31:02;4.53;;;4.13;;
76210;SDS011;65003;49.518;11.280;2024-02-14T00:33:29;5.07;;;4.23;;
76210;SDS011;65003;49.518;11.280;2024-02-14T00:35:55;5.53;;;3.37;;
76210;SDS011;65003;49.518;11.280;2024-02-14T00:38:22;4.37;;;3.90;;
76210;SDS011;65003;49.518;11.280;2024-02-14T00:40:49;4.57;;;3.30;;
76210;SDS011;65003;49.518;11.280;2024-02-14T00:43:15;6.50;;;3.70;;
76210;SDS011;65003;49.518;11.280;2024-02-14T00:45:42;4.63;;;3.60;;
76210;SDS011;65003;49.518;11.280;2024-02-14T00:48:08;6.03;;;4.10;;
76210;SDS011;65003;49.518;11.280;2024-02-14T00:50:35;7.20;;;4.43;;
76210;SDS011;65003;49.518;11.280;2024-02-14T00:53:02;4.37;;;3.67;;
76210;SDS011;65003;49.518;11.280;2024-02-14T00:55:28;3.97;;;3.23;;
76210;SDS011;65003;49.518;11.280;2024-02-14T00:57:55;9.00;;;3.50;;
76210;SDS011;65003;49.518;11.280;2024-02-14T01:00:21;6.63;;;4.03;;
76210;SDS011;65003;49.518;11.280;2024-02-14T01:02:48;6.20;;;3.43;;
76210;SDS011;65003;49.518;11.280;2024-02-14T01:05:15;9.70;;;3.93;;
76210;SDS011;65003;49.518;11.280;2024-02-14T01:07:41;7.77;;;3.50;;
76210;SDS011;65003;49.518;11.280;2024-02-14T01:10:08;6.83;;;3.87;;
76210;SDS011;65003;49.518;11.280;2024-02-14T01:12:35;4.60;;;3.57;;
76210;SDS011;65003;49.518;11.280;2024-02-14T01:15:01;5.33;;;3.53;;
76210;SDS011;65003;49.518;11.280;2024-02-14T01:17:28;4.43;;;3.37;;
76210;SDS011;65003;49.518;11.280;2024-02-14T01:19:54;5.00;;;3.80;;
76210;SDS011;65003;49.518;11.280;2024-02-14T01:22:21;4.07;;;3.60;;
76210;SDS011;65003;49.518;11.280;2024-02-14T01:24:48;5.20;;;3.23;;
76210;SDS011;65003;49.518;11.280;2024-02-14T01:27:14;4.53;;;3.40;;
76210;SDS011;65003;49.518;11.280;2024-02-14T01:29:41;6.40;;;3.57;;
76210;SDS011;65003;49.518;11.280;2024-02-14T01:32:07;4.80;;;3.57;;
76210;SDS011;65003;49.518;11.280;2024-02-14T01:34:34;6.63;;;3.53;;
76210;SDS011;65003;49.518;11.280;2024-02-14T01:37:00;4.80;;;3.37;;
76210;SDS011;65003;49.518;11.280;2024-02-14T01:39:27;4.77;;;3.77;;
76210;SDS011;65003;49.518;11.280;2024-02-14T01:41:54;4.47;;;3.43;;
76210;SDS011;65003;49.518;11.280;2024-02-14T01:44:20;3.97;;;3.20;;
76210;SDS011;65003;49.518;11.280;2024-02-14T01:46:47;4.83;;;3.10;;
76210;SDS011;65003;49.518;11.280;2024-02-14T01:49:13;4.93;;;3.47;;
76210;SDS011;65003;49.518;11.280;2024-02-14T01:51:40;4.30;;;3.17;;
76210;SDS011;65003;49.518;11.280;2024-02-14T01:54:07;6.87;;;3.80;;
76210;SDS011;65003;49.518;11.280;2024-02-14T01:56:33;5.28;;;3.37;;
76210;SDS011;65003;49.518;11.280;2024-02-14T01:59:00;3.97;;;3.50;;
76210;SDS011;65003;49.518;11.280;2024-02-14T02:01:26;5.63;;;3.60;;
76210;SDS011;65003;49.518;11.280;2024-02-14T02:03:54;9.10;;;3.77;;
76210;SDS011;65003;49.518;11.280;2024-02-14T02:06:20;5.57;;;3.40;;
76210;SDS011;65003;49.518;11.280;2024-02-14T02:08:46;7.67;;;3.40;;
76210;SDS011;65003;49.518;11.280;2024-02-14T02:11:13;5.40;;;3.40;;
76210;SDS011;65003;49.518;11.280;2024-02-14T02:13:39;5.83;;;3.07;;
76210;SDS011;65003;49.518;11.280;2024-02-14T02:16:06;3.37;;;2.73;;
76210;SDS011;65003;49.518;11.280;2024-02-14T02:18:33;3.63;;;3.00;;
76210;SDS011;65003;49.518;11.280;2024-02-14T02:20:59;5.33;;;3.30;;
76210;SDS011;65003;49.518;11.280;2024-02-14T02:23:26;4.30;;;2.90;;
76210;SDS011;65003;49.518;11.280;2024-02-14T02:25:52;4.97;;;3.07;;
76210;SDS011;65003;49.518;11.280;2024-02-14T02:28:19;5.57;;;3.23;;
76210;SDS011;65003;49.518;11.280;2024-02-14T02:30:46;4.47;;;3.10;;
76210;SDS011;65003;49.518;11.280;2024-02-14T02:33:12;3.80;;;3.40;;
76210;SDS011;65003;49.518;11.280;2024-02-14T02:35:41;8.40;;;3.57;;
76210;SDS011;65003;49.518;11.280;2024-02-14T02:38:05;6.40;;;3.07;;
76210;SDS011;65003;49.518;11.280;2024-02-14T02:40:32;2.67;;;2.43;;
76210;SDS011;65003;49.518;11.280;2024-02-14T02:42:58;3.20;;;2.63;;
76210;SDS011;65003;49.518;11.280;2024-02-14T02:45:25;6.17;;;3.67;;
76210;SDS011;65003;49.518;11.280;2024-02-14T02:47:52;5.30;;;2.83;;
76210;SDS011;65003;49.518;11.280;2024-02-14T02:50:19;5.90;;;2.95;;
76210;SDS011;65003;49.518;11.280;2024-02-14T02:52:45;4.40;;;2.97;;
76210;SDS011;65003;49.518;11.280;2024-02-14T02:55:12;3.90;;;3.10;;
76210;SDS011;65003;49.518;11.280;2024-02-14T02:57:40;3.80;;;3.07;;
76210;SDS011;65003;49.518;11.280;2024-02-14T03:00:06;8.47;;;2.93;;
76210;SDS011;65003;49.518;11.280;2024-02-14T03:02:33;4.97;;;2.80;;
76210;SDS011;65003;49.518;11.280;2024-02-14T03:04:59;4.40;;;3.10;;
76210;SDS011;65003;49.518;11.280;2024-02-14T03:07:26;6.87;;;3.33;;
76210;SDS011;65003;49.518;11.280;2024-02-14T03:09:53;5.70;;;3.27;;
76210;SDS011;65003;49.518;11.280;2024-02-14T03:12:19;7.50;;;3.33;;
76210;SDS011;65003;49.518;11.280;2024-02-14T03:14:46;3.87;;;2.90;;
76210;SDS011;65003;49.518;11.280;2024-02-14T03:17:12;6.30;;;2.40;;
76210;SDS011;65003;49.518;11.280;2024-02-14T03:19:39;5.03;;;3.03;;
76210;SDS011;65003;49.518;11.280;2024-02-14T03:22:05;6.00;;;2.70;;
76210;SDS011;65003;49.518;11.280;2024-02-14T03:24:32;7.53;;;3.27;;
76210;SDS011;65003;49.518;11.280;2024-02-14T03:26:59;7.27;;;2.83;;
76210;SDS011;65003;49.518;11.280;2024-02-14T03:29:25;3.42;;;3.12;;
76210;SDS011;65003;49.518;11.280;2024-02-14T03:31:52;4.77;;;3.00;;
76210;SDS011;65003;49.518;11.280;2024-02-14T03:34:18;3.93;;;2.60;;
76210;SDS011;65003;49.518;11.280;2024-02-14T03:36:45;2.73;;;2.40;;
76210;SDS011;65003;49.518;11.280;2024-02-14T03:39:12;3.27;;;2.97;;
76210;SDS011;65003;49.518;11.280;2024-02-14T03:41:38;4.37;;;2.90;;
76210;SDS011;65003;49.518;11.280;2024-02-14T03:44:05;5.27;;;3.10;;
76210;SDS011;65003;49.518;11.280;2024-02-14T03:46:31;6.93;;;2.77;;
76210;SDS011;65003;49.518;11.280;2024-02-14T03:48:58;6.33;;;2.93;;
76210;SDS011;65003;49.518;11.280;2024-02-14T03:51:25;4.25;;;3.08;;
76210;SDS011;65003;49.518;11.280;2024-02-14T03:53:51;3.07;;;2.43;;
76210;SDS011;65003;49.518;11.280;2024-02-14T03:56:19;6.67;;;2.40;;
76210;SDS011;65003;49.518;11.280;2024-02-14T03:58:45;3.30;;;2.80;;
76210;SDS011;65003;49.518;11.280;2024-02-14T04:01:12;5.93;;;2.67;;
76210;SDS011;65003;49.518;11.280;2024-02-14T04:03:38;4.60;;;3.03;;
76210;SDS011;65003;49.518;11.280;2024-02-14T04:06:05;4.50;;;2.83;;
76210;SDS011;65003;49.518;11.280;2024-02-14T04:08:32;7.30;;;3.33;;
76210;SDS011;65003;49.518;11.280;2024-02-14T04:10:58;6.10;;;2.53;;
76210;SDS011;65003;49.518;11.280;2024-02-14T04:13:25;4.27;;;2.53;;
76210;SDS011;65003;49.518;11.280;2024-02-14T04:15:51;7.20;;;2.97;;
76210;SDS011;65003;49.518;11.280;2024-02-14T04:18:18;5.30;;;2.93;;
76210;SDS011;65003;49.518;11.280;2024-02-14T04:20:45;7.47;;;3.00;;
76210;SDS011;65003;49.518;11.280;2024-02-14T04:23:11;4.17;;;2.83;;
76210;SDS011;65003;49.518;11.280;2024-02-14T04:25:38;3.47;;;2.63;;
76210;SDS011;65003;49.518;11.280;2024-02-14T04:28:04;5.60;;;2.80;;
76210;SDS011;65003;49.518;11.280;2024-02-14T04:30:31;5.30;;;2.80;;
76210;SDS011;65003;49.518;11.280;2024-02-14T04:32:57;4.77;;;2.70;;
76210;SDS011;65003;49.518;11.280;2024-02-14T04:35:24;4.10;;;3.12;;
76210;SDS011;65003;49.518;11.280;2024-02-14T04:37:51;4.40;;;2.60;;
76210;SDS011;65003;49.518;11.280;2024-02-14T04:40:17;4.23;;;2.50;;
76210;SDS011;65003;49.518;11.280;2024-02-14T04:42:44;3.23;;;2.83;;
76210;SDS011;65003;49.518;11.280;2024-02-14T04:45:10;2.83;;;2.30;;
76210;SDS011;65003;49.518;11.280;2024-02-14T04:47:37;5.47;;;3.10;;
76210;SDS011;65003;49.518;11.280;2024-02-14T04:50:04;4.53;;;2.60;;
76210;SDS011;65003;49.518;11.280;2024-02-14T04:52:30;4.03;;;2.50;;
76210;SDS011;65003;49.518;11.280;2024-02-14T04:54:57;4.67;;;3.17;;
76210;SDS011;65003;49.518;11.280;2024-02-14T04:57:23;2.20;;;2.00;;
76210;SDS011;65003;49.518;11.280;2024-02-14T04:59:50;3.33;;;2.40;;
76210;SDS011;65003;49.518;11.280;2024-02-14T05:02:17;4.50;;;2.33;;
76210;SDS011;65003;49.518;11.280;2024-02-14T05:04:44;4.73;;;2.80;;
76210;SDS011;65003;49.518;11.280;2024-02-14T05:07:10;3.07;;;2.50;;
76210;SDS011;65003;49.518;11.280;2024-02-14T05:09:36;5.33;;;2.70;;
76210;SDS011;65003;49.518;11.280;2024-02-14T05:12:03;3.83;;;2.50;;
76210;SDS011;65003;49.518;11.280;2024-02-14T05:14:30;4.07;;;3.00;;
76210;SDS011;65003;49.518;11.280;2024-02-14T05:16:56;5.93;;;3.00;;
76210;SDS011;65003;49.518;11.280;2024-02-14T05:19:23;4.83;;;3.30;;
76210;SDS011;65003;49.518;11.280;2024-02-14T05:21:49;3.43;;;2.80;;
76210;SDS011;65003;49.518;11.280;2024-02-14T05:24:16;7.43;;;3.00;;
76210;SDS011;65003;49.518;11.280;2024-02-14T05:26:43;4.97;;;2.92;;
76210;SDS011;65003;49.518;11.280;2024-02-14T05:29:09;5.47;;;3.27;;
76210;SDS011;65003;49.518;11.280;2024-02-14T05:31:43;3.77;;;3.07;;
76210;SDS011;65003;49.518;11.280;2024-02-14T05:34:09;4.67;;;3.03;;
76210;SDS011;65003;49.518;11.280;2024-02-14T05:36:36;3.73;;;3.07;;
76210;SDS011;65003;49.518;11.280;2024-02-14T05:39:03;5.33;;;2.83;;
76210;SDS011;65003;49.518;11.280;2024-02-14T05:41:29;5.43;;;3.23;;
76210;SDS011;65003;49.518;11.280;2024-02-14T05:43:55;4.73;;;3.23;;
76210;SDS011;65003;49.518;11.280;2024-02-14T05:46:22;4.40;;;2.67;;
76210;SDS011;65003;49.518;11.280;2024-02-14T05:48:49;2.83;;;2.47;;
76210;SDS011;65003;49.518;11.280;2024-02-14T05:51:15;5.30;;;3.40;;
76210;SDS011;65003;49.518;11.280;2024-02-14T05:53:42;7.47;;;3.27;;
76210;SDS011;65003;49.518;11.280;2024-02-14T05:56:08;7.40;;;3.73;;
76210;SDS011;65003;49.518;11.280;2024-02-14T05:58:35;8.67;;;3.53;;
76210;SDS011;65003;49.518;11.280;2024-02-14T06:01:02;4.53;;;3.27;;
76210;SDS011;65003;49.518;11.280;2024-02-14T06:03:28;4.80;;;3.60;;
76210;SDS011;65003;49.518;11.280;2024-02-14T06:05:55;5.80;;;3.50;;
76210;SDS011;65003;49.518;11.280;2024-02-14T06:08:21;6.70;;;3.77;;
76210;SDS011;65003;49.518;11.280;2024-02-14T06:10:48;3.80;;;3.20;;
76210;SDS011;65003;49.518;11.280;2024-02-14T06:13:15;4.43;;;3.33;;
76210;SDS011;65003;49.518;11.280;2024-02-14T06:15:41;3.87;;;3.10;;
76210;SDS011;65003;49.518;11.280;2024-02-14T06:18:08;4.53;;;3.30;;
76210;SDS011;65003;49.518;11.280;2024-02-14T06:20:34;6.60;;;3.37;;
76210;SDS011;65003;49.518;11.280;2024-02-14T06:23:01;4.67;;;3.40;;
76210;SDS011;65003;49.518;11.280;2024-02-14T06:25:27;4.73;;;3.23;;
76210;SDS011;65003;49.518;11.280;2024-02-14T06:27:54;4.70;;;2.90;;
76210;SDS011;65003;49.518;11.280;2024-02-14T06:30:21;8.13;;;3.53;;
76210;SDS011;65003;49.518;11.280;2024-02-14T06:32:47;6.93;;;3.70;;
76210;SDS011;65003;49.518;11.280;2024-02-14T06:35:14;6.83;;;3.83;;
76210;SDS011;65003;49.518;11.280;2024-02-14T06:37:41;5.23;;;3.93;;
76210;SDS011;65003;49.518;11.280;2024-02-14T06:40:07;5.30;;;3.60;;
76210;SDS011;65003;49.518;11.280;2024-02-14T06:42:34;8.60;;;3.80;;
76210;SDS011;65003;49.518;11.280;2024-02-14T06:45:01;7.83;;;3.60;;
76210;SDS011;65003;49.518;11.280;2024-02-14T06:47:27;6.05;;;3.90;;
76210;SDS011;65003;49.518;11.280;2024-02-14T06:49:54;5.97;;;3.23;;
76210;SDS011;65003;49.518;11.280;2024-02-14T06:52:20;8.47;;;4.10;;
76210;SDS011;65003;49.518;11.280;2024-02-14T06:54:47;5.77;;;3.47;;
76210;SDS011;65003;49.518;11.280;2024-02-14T06:57:14;5.40;;;3.20;;
76210;SDS011;65003;49.518;11.280;2024-02-14T06:59:41;4.47;;;3.60;;
76210;SDS011;65003;49.518;11.280;2024-02-14T07:02:07;8.53;;;3.77;;
76210;SDS011;65003;49.518;11.280;2024-02-14T07:04:33;8.10;;;3.90;;
76210;SDS011;65003;49.518;11.280;2024-02-14T07:07:00;7.83;;;3.73;;
76210;SDS011;65003;49.518;11.280;2024-02-14T07:09:27;7.70;;;3.73;;
76210;SDS011;65003;49.518;11.280;2024-02-14T07:11:53;8.13;;;3.73;;
76210;SDS011;65003;49.518;11.280;2024-02-14T07:14:20;6.07;;;3.17;;
76210;SDS011;65003;49.518;11.280;2024-02-14T07:16:46;8.53;;;4.07;;
76210;SDS011;65003;49.518;11.280;2024-02-14T07:19:13;6.20;;;4.23;;
76210;SDS011;65003;49.518;11.280;2024-02-14T07:21:39;8.63;;;3.80;;
76210;SDS011;65003;49.518;11.280;2024-02-14T07:24:06;8.80;;;5.87;;
76210;SDS011;65003;49.518;11.280;2024-02-14T07:26:33;11.90;;;7.95;;
76210;SDS011;65003;49.518;11.280;2024-02-14T07:29:00;11.17;;;7.17;;
76210;SDS011;65003;49.518;11.280;2024-02-14T07:31:28;8.67;;;5.50;;
76210;SDS011;65003;49.518;11.280;2024-02-14T07:33:54;7.00;;;5.20;;
76210;SDS011;65003;49.518;11.280;2024-02-14T07:36:20;7.10;;;4.80;;
76210;SDS011;65003;49.518;11.280;2024-02-14T07:38:47;7.93;;;6.43;;
76210;SDS011;65003;49.518;11.280;2024-02-14T07:41:13;8.27;;;5.83;;
76210;SDS011;65003;49.518;11.280;2024-02-14T07:43:40;5.87;;;4.67;;
76210;SDS011;65003;49.518;11.280;2024-02-14T07:46:07;9.27;;;4.57;;
76210;SDS011;65003;49.518;11.280;2024-02-14T07:48:34;6.87;;;4.53;;
76210;SDS011;65003;49.518;11.280;2024-02-14T07:51:00;9.40;;;4.57;;
76210;SDS011;65003;49.518;11.280;2024-02-14T07:53:27;5.60;;;4.60;;
76210;SDS011;65003;49.518;11.280;2024-02-14T07:55:53;9.03;;;5.30;;
76210;SDS011;65003;49.518;11.280;2024-02-14T07:58:20;8.17;;;5.07;;
76210;SDS011;65003;49.518;11.280;2024-02-14T08:00:46;8.13;;;5.00;;
76210;SDS011;65003;49.518;11.280;2024-02-14T08:03:13;9.83;;;5.50;;
76210;SDS011;65003;49.518;11.280;2024-02-14T08:05:40;13.70;;;7.50;;
76210;SDS011;65003;49.518;11.280;2024-02-14T08:08:07;15.63;;;9.20;;
76210;SDS011;65003;49.518;11.280;2024-02-14T08:10:33;10.27;;;5.83;;
76210;SDS011;65003;49.518;11.280;2024-02-14T08:13:00;9.53;;;6.30;;
76210;SDS011;65003;49.518;11.280;2024-02-14T08:15:26;10.37;;;6.53;;
76210;SDS011;65003;49.518;11.280;2024-02-14T08:17:53;29.87;;;26.93;;
76210;SDS011;65003;49.518;11.280;2024-02-14T08:20:20;49.33;;;44.37;;
76210;SDS011;65003;49.518;11.280;2024-02-14T08:22:46;14.67;;;13.20;;
76210;SDS011;65003;49.518;11.280;2024-02-14T08:25:13;13.45;;;11.45;;
76210;SDS011;65003;49.518;11.280;2024-02-14T08:27:39;5.93;;;4.23;;
76210;SDS011;65003;49.518;11.280;2024-02-14T08:30:06;4.93;;;3.30;;
76210;SDS011;65003;49.518;11.280;2024-02-14T08:32:33;4.43;;;3.30;;
76210;SDS011;65003;49.518;11.280;2024-02-14T08:35:00;6.70;;;3.40;;
76210;SDS011;65003;49.518;11.280;2024-02-14T08:37:27;5.90;;;3.77;;
76210;SDS011;65003;49.518;11.280;2024-02-14T08:39:54;5.50;;;3.37;;
76210;SDS011;65003;49.518;11.280;2024-02-14T08:42:20;6.13;;;2.97;;
76210;SDS011;65003;49.518;11.280;2024-02-14T08:44:47;9.30;;;6.40;;
76210;SDS011;65003;49.518;11.280;2024-02-14T08:47:13;19.00;;;12.10;;
76210;SDS011;65003;49.518;11.280;2024-02-14T08:49:40;10.10;;;7.27;;
76210;SDS011;65003;49.518;11.280;2024-02-14T08:52:06;7.60;;;4.47;;
76210;SDS011;65003;49.518;11.280;2024-02-14T08:54:33;6.73;;;4.60;;
76210;SDS011;65003;49.518;11.280;2024-02-14T08:57:00;5.50;;;4.30;;
76210;SDS011;65003;49.518;11.280;2024-02-14T08:59:26;5.62;;;4.53;;
76210;SDS011;65003;49.518;11.280;2024-02-14T09:01:53;4.70;;;3.67;;
76210;SDS011;65003;49.518;11.280;2024-02-14T09:04:19;6.57;;;3.50;;
76210;SDS011;65003;49.518;11.280;2024-02-14T09:06:46;5.23;;;3.17;;
76210;SDS011;65003;49.518;11.280;2024-02-14T09:09:13;6.07;;;3.20;;
76210;SDS011;65003;49.518;11.280;2024-02-14T09:11:39;6.37;;;2.80;;
76210;SDS011;65003;49.518;11.280;2024-02-14T09:14:06;10.33;;;3.40;;
76210;SDS011;65003;49.518;11.280;2024-02-14T09:16:33;4.83;;;3.13;;
76210;SDS011;65003;49.518;11.280;2024-02-14T09:19:00;6.10;;;3.63;;
76210;SDS011;65003;49.518;11.280;2024-02-14T09:21:27;5.47;;;3.33;;
76210;SDS011;65003;49.518;11.280;2024-02-14T09:23:53;7.80;;;3.40;;
76210;SDS011;65003;49.518;11.280;2024-02-14T09:26:20;7.20;;;3.20;;
76210;SDS011;65003;49.518;11.280;2024-02-14T09:28:47;7.00;;;4.03;;
76210;SDS011;65003;49.518;11.280;2024-02-14T09:31:17;7.80;;;2.87;;
76210;SDS011;65003;49.518;11.280;2024-02-14T09:33:47;9.70;;;3.30;;
76210;SDS011;65003;49.518;11.280;2024-02-14T09:36:13;6.53;;;2.50;;
76210;SDS011;65003;49.518;11.280;2024-02-14T09:38:40;5.73;;;3.07;;
76210;SDS011;65003;49.518;11.280;2024-02-14T09:41:15;4.27;;;3.23;;
76210;SDS011;65003;49.518;11.280;2024-02-14T09:43:43;5.60;;;3.13;;
76210;SDS011;65003;49.518;11.280;2024-02-14T09:46:11;5.43;;;2.40;;
76210;SDS011;65003;49.518;11.280;2024-02-14T09:48:39;5.37;;;3.90;;
76210;SDS011;65003;49.518;11.280;2024-02-14T09:51:05;11.60;;;4.93;;
76210;SDS011;65003;49.518;11.280;2024-02-14T09:53:32;6.47;;;2.70;;
76210;SDS011;65003;49.518;11.280;2024-02-14T09:55:58;3.83;;;2.73;;
76210;SDS011;65003;49.518;11.280;2024-02-14T09:58:25;3.63;;;2.50;;
76210;SDS011;65003;49.518;11.280;2024-02-14T10:00:52;5.03;;;3.17;;
76210;SDS011;65003;49.518;11.280;2024-02-14T10:03:18;5.43;;;2.57;;
76210;SDS011;65003;49.518;11.280;2024-02-14T10:05:45;4.57;;;3.10;;
76210;SDS011;65003;49.518;11.280;2024-02-14T10:08:11;5.07;;;3.73;;
76210;SDS011;65003;49.518;11.280;2024-02-14T10:10:38;7.73;;;5.10;;
76210;SDS011;65003;49.518;11.280;2024-02-14T10:13:05;6.63;;;3.47;;
76210;SDS011;65003;49.518;11.280;2024-02-14T10:15:32;6.20;;;3.87;;
76210;SDS011;65003;49.518;11.280;2024-02-14T10:17:58;5.87;;;2.73;;
76210;SDS011;65003;49.518;11.280;2024-02-14T10:20:24;9.07;;;5.60;;
76210;SDS011;65003;49.518;11.280;2024-02-14T10:22:51;7.47;;;3.73;;
76210;SDS011;65003;49.518;11.280;2024-02-14T10:25:18;7.77;;;3.20;;
76210;SDS011;65003;49.518;11.280;2024-02-14T10:27:45;7.40;;;4.67;;
76210;SDS011;65003;49.518;11.280;2024-02-14T10:30:11;4.20;;;2.90;;
76210;SDS011;65003;49.518;11.280;2024-02-14T10:32:38;6.53;;;3.93;;
76210;SDS011;65003;49.518;11.280;2024-02-14T10:35:05;7.27;;;3.37;;
76210;SDS011;65003;49.518;11.280;2024-02-14T10:37:33;7.63;;;4.90;;
76210;SDS011;65003;49.518;11.280;2024-02-14T10:39:59;14.97;;;9.67;;
76210;SDS011;65003;49.518;11.280;2024-02-14T10:42:26;5.40;;;2.97;;
76210;SDS011;65003;49.518;11.280;2024-02-14T10:44:52;3.43;;;2.10;;
76210;SDS011;65003;49.518;11.280;2024-02-14T10:47:19;4.83;;;2.03;;
76210;SDS011;65003;49.518;11.280;2024-02-14T10:49:47;2.97;;;2.20;;
76210;SDS011;65003;49.518;11.280;2024-02-14T10:52:13;5.00;;;2.50;;
76210;SDS011;65003;49.518;11.280;2024-02-14T10:54:39;4.47;;;2.10;;
76210;SDS011;65003;49.518;11.280;2024-02-14T10:57:06;5.57;;;2.20;;
76210;SDS011;65003;49.518;11.280;2024-02-14T10:59:33;3.93;;;2.20;;
76210;SDS011;65003;49.518;11.280;2024-02-14T11:02:01;4.43;;;2.17;;
76210;SDS011;65003;49.518;11.280;2024-02-14T11:04:27;4.47;;;2.43;;
76210;SDS011;65003;49.518;11.280;2024-02-14T11:06:54;3.63;;;2.27;;
76210;SDS011;65003;49.518;11.280;2024-02-14T11:09:21;3.03;;;2.27;;
76210;SDS011;65003;49.518;11.280;2024-02-14T11:11:47;5.37;;;2.03;;
76210;SDS011;65003;49.518;11.280;2024-02-14T11:14:14;4.47;;;2.00;;
76210;SDS011;65003;49.518;11.280;2024-02-14T11:16:44;4.67;;;2.17;;
76210;SDS011;65003;49.518;11.280;2024-02-14T11:19:09;3.53;;;1.83;;
76210;SDS011;65003;49.518;11.280;2024-02-14T11:21:36;3.30;;;2.33;;
76210;SDS011;65003;49.518;11.280;2024-02-14T11:24:04;4.57;;;1.80;;
76210;SDS011;65003;49.518;11.280;2024-02-14T11:26:37;3.25;;;2.00;;
76210;SDS011;65003;49.518;11.280;2024-02-14T11:28:59;5.27;;;2.00;;
76210;SDS011;65003;49.518;11.280;2024-02-14T11:31:30;4.70;;;2.93;;
76210;SDS011;65003;49.518;11.280;2024-02-14T11:33:52;4.90;;;1.93;;
76210;SDS011;65003;49.518;11.280;2024-02-14T11:36:18;4.17;;;2.10;;
76210;SDS011;65003;49.518;11.280;2024-02-14T11:38:45;5.50;;;2.43;;
76210;SDS011;65003;49.518;11.280;2024-02-14T11:41:12;4.93;;;2.20;;
76210;SDS011;65003;49.518;11.280;2024-02-14T11:43:38;2.67;;;1.83;;
76210;SDS011;65003;49.518;11.280;2024-02-14T11:46:05;3.60;;;2.00;;
76210;SDS011;65003;49.518;11.280;2024-02-14T11:48:31;5.13;;;2.03;;
76210;SDS011;65003;49.518;11.280;2024-02-14T11:50:58;3.00;;;1.87;;
76210;SDS011;65003;49.518;11.280;2024-02-14T11:53:25;4.00;;;1.97;;
76210;SDS011;65003;49.518;11.280;2024-02-14T11:55:51;3.07;;;1.83;;
76210;SDS011;65003;49.518;11.280;2024-02-14T11:58:18;3.03;;;1.40;;
76210;SDS011;65003;49.518;11.280;2024-02-14T12:00:45;3.77;;;1.43;;
76210;SDS011;65003;49.518;11.280;2024-02-14T12:03:12;3.10;;;1.40;;
76210;SDS011;65003;49.518;11.280;2024-02-14T12:05:39;2.77;;;1.70;;
76210;SDS011;65003;49.518;11.280;2024-02-14T12:08:06;4.23;;;1.50;;
76210;SDS011;65003;49.518;11.280;2024-02-14T12:10:32;2.10;;;1.70;;
76210;SDS011;65003;49.518;11.280;2024-02-14T12:13:04;3.23;;;1.80;;
76210;SDS011;65003;49.518;11.280;2024-02-14T12:15:26;2.57;;;1.97;;
76210;SDS011;65003;49.518;11.280;2024-02-14T12:17:54;4.50;;;1.83;;
76210;SDS011;65003;49.518;11.280;2024-02-14T12:20:21;3.62;;;1.87;;
76210;SDS011;65003;49.518;11.280;2024-02-14T12:22:49;4.60;;;1.63;;
76210;SDS011;65003;49.518;11.280;2024-02-14T12:25:13;4.33;;;1.67;;
76210;SDS011;65003;49.518;11.280;2024-02-14T12:27:40;4.60;;;1.40;;
76210;SDS011;65003;49.518;11.280;2024-02-14T12:30:06;3.50;;;1.50;;
76210;SDS011;65003;49.518;11.280;2024-02-14T12:32:33;4.27;;;1.97;;
76210;SDS011;65003;49.518;11.280;2024-02-14T12:35:00;3.23;;;1.33;;
76210;SDS011;65003;49.518;11.280;2024-02-14T12:37:26;3.40;;;2.00;;
76210;SDS011;65003;49.518;11.280;2024-02-14T12:39:53;3.23;;;1.43;;
76210;SDS011;65003;49.518;11.280;2024-02-14T12:42:19;2.30;;;1.27;;
76210;SDS011;65003;49.518;11.280;2024-02-14T12:44:46;3.00;;;1.67;;
76210;SDS011;65003;49.518;11.280;2024-02-14T12:47:13;2.37;;;1.60;;
76210;SDS011;65003;49.518;11.280;2024-02-14T12:49:39;4.73;;;1.53;;
76210;SDS011;65003;49.518;11.280;2024-02-14T12:52:06;7.37;;;1.83;;
76210;SDS011;65003;49.518;11.280;2024-02-14T12:54:32;5.23;;;1.63;;
76210;SDS011;65003;49.518;11.280;2024-02-14T12:56:59;1.70;;;1.23;;
76210;SDS011;65003;49.518;11.280;2024-02-14T12:59:26;2.93;;;1.23;;
76210;SDS011;65003;49.518;11.280;2024-02-14T13:01:52;6.37;;;1.33;;
76210;SDS011;65003;49.518;11.280;2024-02-14T13:04:19;1.87;;;1.10;;
76210;SDS011;65003;49.518;11.280;2024-02-14T13:06:46;3.17;;;1.17;;
76210;SDS011;65003;49.518;11.280;2024-02-14T13:09:12;3.23;;;1.43;;
76210;SDS011;65003;49.518;11.280;2024-02-14T13:11:39;3.03;;;1.10;;
76210;SDS011;65003;49.518;11.280;2024-02-14T13:14:05;2.80;;;1.40;;
76210;SDS011;65003;49.518;11.280;2024-02-14T13:16:32;2.53;;;1.53;;
76210;SDS011;65003;49.518;11.280;2024-02-14T13:18:58;3.17;;;1.37;;
76210;SDS011;65003;49.518;11.280;2024-02-14T13:21:25;3.00;;;1.00;;
76210;SDS011;65003;49.518;11.280;2024-02-14T13:23:52;2.40;;;1.10;;
76210;SDS011;65003;49.518;11.280;2024-02-14T13:26:19;3.08;;;1.35;;
76210;SDS011;65003;49.518;11.280;2024-02-14T13:28:45;2.63;;;1.50;;
76210;SDS011;65003;49.518;11.280;2024-02-14T13:31:12;1.20;;;1.10;;
76210;SDS011;65003;49.518;11.280;2024-02-14T13:33:39;2.73;;;1.17;;
76210;SDS011;65003;49.518;11.280;2024-02-14T13:36:05;2.70;;;1.40;;
76210;SDS011;65003;49.518;11.280;2024-02-14T13:38:32;3.07;;;1.50;;
76210;SDS011;65003;49.518;11.280;2024-02-14T13:41:02;9.23;;;2.77;;
76210;SDS011;65003;49.518;11.280;2024-02-14T13:43:28;2.10;;;1.43;;
76210;SDS011;65003;49.518;11.280;2024-02-14T13:45:55;3.03;;;1.03;;
76210;SDS011;65003;49.518;11.280;2024-02-14T13:48:22;2.00;;;0.70;;
76210;SDS011;65003;49.518;11.280;2024-02-14T13:50:49;3.93;;;1.17;;
76210;SDS011;65003;49.518;11.280;2024-02-14T13:53:15;1.87;;;1.13;;
76210;SDS011;65003;49.518;11.280;2024-02-14T13:55:42;2.93;;;1.20;;
76210;SDS011;65003;49.518;11.280;2024-02-14T13:58:08;1.27;;;0.90;;
76210;SDS011;65003;49.518;11.280;2024-02-14T14:00:35;3.23;;;1.10;;
76210;SDS011;65003;49.518;11.280;2024-02-14T14:03:02;2.27;;;0.90;;
76210;SDS011;65003;49.518;11.280;2024-02-14T14:05:28;2.03;;;0.83;;
76210;SDS011;65003;49.518;11.280;2024-02-14T14:07:55;5.27;;;1.07;;
76210;SDS011;65003;49.518;11.280;2024-02-14T14:10:21;1.27;;;0.90;;
76210;SDS011;65003;49.518;11.280;2024-02-14T14:12:48;1.83;;;0.97;;
76210;SDS011;65003;49.518;11.280;2024-02-14T14:15:15;2.67;;;0.80;;
76210;SDS011;65003;49.518;11.280;2024-02-14T14:17:41;2.00;;;0.87;;
76210;SDS011;65003;49.518;11.280;2024-02-14T14:20:08;1.60;;;0.93;;
76210;SDS011;65003;49.518;11.280;2024-02-14T14:22:35;1.07;;;0.83;;
76210;SDS011;65003;49.518;11.280;2024-02-14T14:25:02;2.40;;;1.17;;
76210;SDS011;65003;49.518;11.280;2024-02-14T14:27:28;1.60;;;0.97;;
76210;SDS011;65003;49.518;11.280;2024-02-14T14:29:55;1.40;;;1.10;;